sensor_id;sensor_type;location;lat;lon;timestamp;pressure;altitude;pressure_sealevel;temperature;humidity
38400;BME280;24180;42.676;23.320;2023-04-29T00:01:04;94826.69;;;7.00;100.00
38400;BME280;24180;42.676;23.320;2023-04-29T00:03:30;94836.38;;;7.08;100.00
38400;BME280;24180;42.676;23.320;2023-04-29T00:05:57;94821.78;;;6.97;100.00
38400;BME280;24180;42.676;23.320;2023-04-29T00:08:23;94840.03;;;7.05;100.00
38400;BME280;24180;42.676;23.320;2023-04-29T00:10:49;94837.81;;;7.01;100.00
38400;BME280;24180;42.676;23.320;2023-04-29T00:13:15;94842.75;;;6.93;100.00
38400;BME280;24180;42.676;23.320;2023-04-29T00:15:40;94831.97;;;6.88;100.00
38400;BME280;24180;42.676;23.320;2023-04-29T00:18:06;94813.25;;;6.75;100.00
38400;BME280;24180;42.676;23.320;2023-04-29T00:20:31;94823.44;;;6.76;100.00
38400;BME280;24180;42.676;23.320;2023-04-29T00:22:57;94847.41;;;6.88;100.00
38400;BME280;24180;42.676;23.320;2023-04-29T00:25:23;94849.31;;;6.86;100.00
38400;BME280;24180;42.676;23.320;2023-04-29T00:27:48;94849.75;;;6.80;100.00
38400;BME280;24180;42.676;23.320;2023-04-29T00:30:14;94849.53;;;6.72;100.00
38400;BME280;24180;42.676;23.320;2023-04-29T00:32:39;94862.19;;;6.86;100.00
38400;BME280;24180;42.676;23.320;2023-04-29T00:35:05;94860.91;;;6.69;100.00
38400;BME280;24180;42.676;23.320;2023-04-29T00:37:31;94854.22;;;6.67;100.00
38400;BME280;24180;42.676;23.320;2023-04-29T00:39:57;94851.78;;;6.65;100.00
38400;BME280;24180;42.676;23.320;2023-04-29T00:42:24;94851.19;;;6.62;100.00
38400;BME280;24180;42.676;23.320;2023-04-29T00:44:49;94805.22;;;6.35;100.00
38400;BME280;24180;42.676;23.320;2023-04-29T00:47:15;94849.31;;;6.52;100.00
38400;BME280;24180;42.676;23.320;2023-04-29T00:49:40;94819.16;;;6.32;100.00
38400;BME280;24180;42.676;23.320;2023-04-29T00:52:06;94814.34;;;6.28;100.00
38400;BME280;24180;42.676;23.320;2023-04-29T00:54:33;94847.31;;;6.34;100.00
38400;BME280;24180;42.676;23.320;2023-04-29T00:57:00;94797.84;;;6.08;100.00
38400;BME280;24180;42.676;23.320;2023-04-29T00:59:27;94829.19;;;6.24;100.00
38400;BME280;24180;42.676;23.320;2023-04-29T01:01:58;94825.56;;;6.27;100.00
38400;BME280;24180;42.676;23.320;2023-04-29T01:04:24;94814.09;;;6.20;100.00
38400;BME280;24180;42.676;23.320;2023-04-29T01:10:09;94824.88;;;6.25;100.00
38400;BME280;24180;42.676;23.320;2023-04-29T01:12:38;94823.56;;;6.19;100.00
38400;BME280;24180;42.676;23.320;2023-04-29T01:15:16;94819.84;;;6.23;100.00
38400;BME280;24180;42.676;23.320;2023-04-29T01:18:07;94785.25;;;6.05;100.00
38400;BME280;24180;42.676;23.320;2023-04-29T01:20:35;94788.84;;;6.02;100.00
38400;BME280;24180;42.676;23.320;2023-04-29T01:23:02;94811.06;;;6.15;100.00
38400;BME280;24180;42.676;23.320;2023-04-29T01:25:28;94778.69;;;6.01;100.00
38400;BME280;24180;42.676;23.320;2023-04-29T01:33:34;94780.84;;;5.83;100.00
38400;BME280;24180;42.676;23.320;2023-04-29T01:41:55;94817.84;;;6.04;100.00
38400;BME280;24180;42.676;23.320;2023-04-29T01:44:23;94783.75;;;5.79;100.00
38400;BME280;24180;42.676;23.320;2023-04-29T01:46:52;94780.50;;;5.77;100.00
38400;BME280;24180;42.676;23.320;2023-04-29T01:49:24;94805.41;;;5.98;100.00
38400;BME280;24180;42.676;23.320;2023-04-29T01:51:50;94778.84;;;5.76;100.00
38400;BME280;24180;42.676;23.320;2023-04-29T01:54:15;94800.34;;;5.86;100.00
38400;BME280;24180;42.676;23.320;2023-04-29T01:56:41;94782.94;;;5.78;100.00
38400;BME280;24180;42.676;23.320;2023-04-29T01:59:07;94775.09;;;5.69;100.00
38400;BME280;24180;42.676;23.320;2023-04-29T02:01:33;94811.81;;;5.82;100.00
38400;BME280;24180;42.676;23.320;2023-04-29T02:03:58;94802.22;;;5.73;100.00
38400;BME280;24180;42.676;23.320;2023-04-29T02:06:24;94807.78;;;5.66;100.00
38400;BME280;24180;42.676;23.320;2023-04-29T02:08:50;94814.31;;;5.71;100.00
38400;BME280;24180;42.676;23.320;2023-04-29T02:11:16;94790.94;;;5.51;100.00
38400;BME280;24180;42.676;23.320;2023-04-29T02:13:41;94788.94;;;5.55;100.00
38400;BME280;24180;42.676;23.320;2023-04-29T02:16:11;94780.41;;;5.43;100.00
38400;BME280;24180;42.676;23.320;2023-04-29T02:18:37;94789.97;;;5.41;100.00
38400;BME280;24180;42.676;23.320;2023-04-29T02:21:03;94809.63;;;5.53;100.00
38400;BME280;24180;42.676;23.320;2023-04-29T02:23:28;94806.94;;;5.55;100.00
38400;BME280;24180;42.676;23.320;2023-04-29T02:25:54;94813.13;;;5.52;100.00
38400;BME280;24180;42.676;23.320;2023-04-29T02:28:20;94778.72;;;5.31;100.00
38400;BME280;24180;42.676;23.320;2023-04-29T02:30:47;94809.69;;;5.41;100.00
38400;BME280;24180;42.676;23.320;2023-04-29T02:33:13;94810.53;;;5.41;100.00
38400;BME280;24180;42.676;23.320;2023-04-29T02:35:38;94796.78;;;5.30;100.00
38400;BME280;24180;42.676;23.320;2023-04-29T02:38:04;94789.88;;;5.19;100.00
38400;BME280;24180;42.676;23.320;2023-04-29T02:40:29;94802.75;;;5.30;100.00
38400;BME280;24180;42.676;23.320;2023-04-29T02:42:55;94775.53;;;5.16;100.00
38400;BME280;24180;42.676;23.320;2023-04-29T02:45:20;94789.78;;;5.21;100.00
38400;BME280;24180;42.676;23.320;2023-04-29T02:47:46;94800.75;;;5.23;100.00
38400;BME280;24180;42.676;23.320;2023-04-29T02:50:12;94799.22;;;5.20;100.00
38400;BME280;24180;42.676;23.320;2023-04-29T02:52:37;94810.88;;;5.13;100.00
38400;BME280;24180;42.676;23.320;2023-04-29T02:55:03;94816.91;;;5.12;100.00
38400;BME280;24180;42.676;23.320;2023-04-29T02:57:29;94801.66;;;4.98;100.00
38400;BME280;24180;42.676;23.320;2023-04-29T02:59:56;94805.00;;;4.87;100.00
38400;BME280;24180;42.676;23.320;2023-04-29T03:02:21;94817.44;;;4.81;100.00
38400;BME280;24180;42.676;23.320;2023-04-29T03:04:47;94839.00;;;5.02;100.00
38400;BME280;24180;42.676;23.320;2023-04-29T03:07:12;94833.88;;;5.02;100.00
38400;BME280;24180;42.676;23.320;2023-04-29T03:09:38;94837.88;;;5.06;100.00
38400;BME280;24180;42.676;23.320;2023-04-29T03:12:03;94819.47;;;4.88;100.00
38400;BME280;24180;42.676;23.320;2023-04-29T03:14:29;94828.00;;;4.89;100.00
38400;BME280;24180;42.676;23.320;2023-04-29T03:16:54;94830.19;;;4.69;100.00
38400;BME280;24180;42.676;23.320;2023-04-29T03:19:21;94824.97;;;4.71;100.00
38400;BME280;24180;42.676;23.320;2023-04-29T03:21:46;94805.88;;;4.62;100.00
38400;BME280;24180;42.676;23.320;2023-04-29T03:24:12;94806.94;;;4.60;100.00
38400;BME280;24180;42.676;23.320;2023-04-29T03:26:37;94833.78;;;4.67;100.00
38400;BME280;24180;42.676;23.320;2023-04-29T03:29:03;94819.75;;;4.60;100.00
38400;BME280;24180;42.676;23.320;2023-04-29T03:31:29;94850.53;;;4.60;100.00
38400;BME280;24180;42.676;23.320;2023-04-29T03:33:54;94846.09;;;4.62;100.00
38400;BME280;24180;42.676;23.320;2023-04-29T03:36:19;94816.00;;;4.40;100.00
38400;BME280;24180;42.676;23.320;2023-04-29T03:38:45;94838.09;;;4.66;100.00
38400;BME280;24180;42.676;23.320;2023-04-29T03:41:10;94861.06;;;4.81;100.00
38400;BME280;24180;42.676;23.320;2023-04-29T03:43:36;94866.03;;;4.95;100.00
38400;BME280;24180;42.676;23.320;2023-04-29T03:46:01;94866.09;;;5.06;100.00
38400;BME280;24180;42.676;23.320;2023-04-29T03:48:27;94855.19;;;5.15;100.00
38400;BME280;24180;42.676;23.320;2023-04-29T03:50:52;94856.84;;;5.16;100.00
38400;BME280;24180;42.676;23.320;2023-04-29T03:53:18;94861.19;;;5.27;100.00
38400;BME280;24180;42.676;23.320;2023-04-29T03:55:43;94851.75;;;5.27;100.00
38400;BME280;24180;42.676;23.320;2023-04-29T03:58:09;94828.44;;;5.30;100.00
38400;BME280;24180;42.676;23.320;2023-04-29T04:00:34;94833.44;;;5.55;100.00
38400;BME280;24180;42.676;23.320;2023-04-29T04:03:00;94851.84;;;5.73;100.00
38400;BME280;24180;42.676;23.320;2023-04-29T04:05:26;94838.53;;;5.79;100.00
38400;BME280;24180;42.676;23.320;2023-04-29T04:07:51;94825.00;;;5.77;100.00
38400;BME280;24180;42.676;23.320;2023-04-29T04:10:17;94832.13;;;5.85;100.00
38400;BME280;24180;42.676;23.320;2023-04-29T04:12:43;94844.34;;;6.05;100.00
38400;BME280;24180;42.676;23.320;2023-04-29T04:15:09;94866.78;;;6.03;100.00
38400;BME280;24180;42.676;23.320;2023-04-29T04:17:34;94867.41;;;6.18;100.00
38400;BME280;24180;42.676;23.320;2023-04-29T04:20:00;94831.47;;;5.94;100.00
38400;BME280;24180;42.676;23.320;2023-04-29T04:22:25;94830.13;;;5.77;100.00
38400;BME280;24180;42.676;23.320;2023-04-29T04:24:50;94822.75;;;5.73;100.00
38400;BME280;24180;42.676;23.320;2023-04-29T04:27:18;94828.16;;;5.81;100.00
38400;BME280;24180;42.676;23.320;2023-04-29T04:29:44;94857.56;;;6.11;100.00
38400;BME280;24180;42.676;23.320;2023-04-29T04:32:09;94848.13;;;6.23;100.00
38400;BME280;24180;42.676;23.320;2023-04-29T04:34:34;94796.78;;;5.99;100.00
38400;BME280;24180;42.676;23.320;2023-04-29T04:37:00;94794.34;;;6.09;100.00
38400;BME280;24180;42.676;23.320;2023-04-29T04:39:26;94838.44;;;6.38;100.00
38400;BME280;24180;42.676;23.320;2023-04-29T04:41:51;94831.19;;;6.32;100.00
38400;BME280;24180;42.676;23.320;2023-04-29T04:44:17;94841.59;;;6.41;100.00
38400;BME280;24180;42.676;23.320;2023-04-29T04:46:42;94825.00;;;6.45;100.00
38400;BME280;24180;42.676;23.320;2023-04-29T04:49:07;94842.06;;;6.57;100.00
38400;BME280;24180;42.676;23.320;2023-04-29T04:51:33;94844.03;;;6.54;100.00
38400;BME280;24180;42.676;23.320;2023-04-29T04:53:58;94866.03;;;6.69;100.00
38400;BME280;24180;42.676;23.320;2023-04-29T04:56:24;94853.97;;;6.92;100.00
38400;BME280;24180;42.676;23.320;2023-04-29T04:58:49;94853.50;;;6.87;100.00
38400;BME280;24180;42.676;23.320;2023-04-29T05:01:15;94853.47;;;7.09;100.00
38400;BME280;24180;42.676;23.320;2023-04-29T05:03:40;94838.03;;;7.09;100.00
38400;BME280;24180;42.676;23.320;2023-04-29T05:06:05;94841.72;;;7.27;100.00
38400;BME280;24180;42.676;23.320;2023-04-29T05:08:31;94802.19;;;7.17;100.00
38400;BME280;24180;42.676;23.320;2023-04-29T05:10:56;94811.72;;;7.37;100.00
38400;BME280;24180;42.676;23.320;2023-04-29T05:13:22;94811.00;;;7.35;100.00
38400;BME280;24180;42.676;23.320;2023-04-29T05:15:49;94832.25;;;7.60;100.00
38400;BME280;24180;42.676;23.320;2023-04-29T05:18:15;94789.16;;;7.50;100.00
38400;BME280;24180;42.676;23.320;2023-04-29T05:20:41;94806.50;;;7.80;100.00
38400;BME280;24180;42.676;23.320;2023-04-29T05:23:06;94824.28;;;8.04;100.00
38400;BME280;24180;42.676;23.320;2023-04-29T05:25:32;94824.72;;;8.09;100.00
38400;BME280;24180;42.676;23.320;2023-04-29T05:27:58;94813.69;;;8.07;100.00
38400;BME280;24180;42.676;23.320;2023-04-29T05:30:24;94802.53;;;7.97;100.00
38400;BME280;24180;42.676;23.320;2023-04-29T05:32:49;94816.78;;;8.22;100.00
38400;BME280;24180;42.676;23.320;2023-04-29T05:35:15;94823.16;;;8.38;100.00
38400;BME280;24180;42.676;23.320;2023-04-29T05:37:41;94808.53;;;8.49;100.00
38400;BME280;24180;42.676;23.320;2023-04-29T05:40:07;94817.28;;;8.67;100.00
38400;BME280;24180;42.676;23.320;2023-04-29T05:42:32;94812.69;;;8.70;100.00
38400;BME280;24180;42.676;23.320;2023-04-29T05:44:58;94810.16;;;8.99;100.00
38400;BME280;24180;42.676;23.320;2023-04-29T05:47:23;94808.03;;;9.14;100.00
38400;BME280;24180;42.676;23.320;2023-04-29T05:49:49;94797.69;;;9.04;100.00
38400;BME280;24180;42.676;23.320;2023-04-29T05:52:14;94807.50;;;9.10;100.00
38400;BME280;24180;42.676;23.320;2023-04-29T05:54:40;94820.41;;;9.10;100.00
38400;BME280;24180;42.676;23.320;2023-04-29T05:57:06;94800.69;;;8.60;100.00
38400;BME280;24180;42.676;23.320;2023-04-29T05:59:32;94809.19;;;8.81;100.00
38400;BME280;24180;42.676;23.320;2023-04-29T06:01:58;94825.00;;;8.97;100.00
38400;BME280;24180;42.676;23.320;2023-04-29T06:04:24;94819.16;;;9.05;100.00
38400;BME280;24180;42.676;23.320;2023-04-29T06:06:51;94809.94;;;9.12;100.00
38400;BME280;24180;42.676;23.320;2023-04-29T06:09:18;94822.91;;;9.40;100.00
38400;BME280;24180;42.676;23.320;2023-04-29T06:11:44;94809.44;;;9.47;100.00
38400;BME280;24180;42.676;23.320;2023-04-29T06:14:10;94812.19;;;9.55;100.00
38400;BME280;24180;42.676;23.320;2023-04-29T06:16:35;94789.97;;;9.33;100.00
38400;BME280;24180;42.676;23.320;2023-04-29T06:19:01;94815.44;;;9.57;100.00
38400;BME280;24180;42.676;23.320;2023-04-29T06:21:27;94789.03;;;9.53;100.00
38400;BME280;24180;42.676;23.320;2023-04-29T06:23:53;94784.28;;;9.58;100.00
38400;BME280;24180;42.676;23.320;2023-04-29T06:26:19;94823.44;;;9.73;100.00
38400;BME280;24180;42.676;23.320;2023-04-29T06:28:45;94817.19;;;9.56;100.00
38400;BME280;24180;42.676;23.320;2023-04-29T06:31:10;94820.88;;;9.73;100.00
38400;BME280;24180;42.676;23.320;2023-04-29T06:33:36;94824.00;;;9.76;100.00
38400;BME280;24180;42.676;23.320;2023-04-29T06:36:02;94793.50;;;9.80;100.00
38400;BME280;24180;42.676;23.320;2023-04-29T06:38:28;94779.63;;;9.71;100.00
38400;BME280;24180;42.676;23.320;2023-04-29T06:40:54;94806.69;;;9.96;100.00
38400;BME280;24180;42.676;23.320;2023-04-29T06:43:19;94814.69;;;10.12;100.00
38400;BME280;24180;42.676;23.320;2023-04-29T06:45:45;94798.09;;;10.24;100.00
38400;BME280;24180;42.676;23.320;2023-04-29T06:48:11;94807.72;;;10.32;100.00
38400;BME280;24180;42.676;23.320;2023-04-29T06:50:36;94816.34;;;10.23;100.00
38400;BME280;24180;42.676;23.320;2023-04-29T06:53:02;94813.31;;;10.27;100.00
38400;BME280;24180;42.676;23.320;2023-04-29T06:55:27;94813.78;;;10.23;100.00
38400;BME280;24180;42.676;23.320;2023-04-29T06:57:52;94800.81;;;10.13;100.00
38400;BME280;24180;42.676;23.320;2023-04-29T07:00:18;94786.41;;;10.11;100.00
38400;BME280;24180;42.676;23.320;2023-04-29T07:02:45;94804.06;;;10.35;100.00
38400;BME280;24180;42.676;23.320;2023-04-29T07:05:11;94808.00;;;10.39;100.00
38400;BME280;24180;42.676;23.320;2023-04-29T07:07:36;94771.91;;;10.27;100.00
38400;BME280;24180;42.676;23.320;2023-04-29T07:10:02;94735.75;;;10.18;100.00
38400;BME280;24180;42.676;23.320;2023-04-29T07:12:27;94785.13;;;10.71;100.00
38400;BME280;24180;42.676;23.320;2023-04-29T07:14:53;94788.63;;;11.07;100.00
38400;BME280;24180;42.676;23.320;2023-04-29T07:17:18;94787.44;;;11.19;99.57
38400;BME280;24180;42.676;23.320;2023-04-29T07:19:44;94784.84;;;11.19;99.83
38400;BME280;24180;42.676;23.320;2023-04-29T07:22:10;94795.34;;;11.17;100.00
38400;BME280;24180;42.676;23.320;2023-04-29T07:24:36;94772.47;;;10.95;100.00
38400;BME280;24180;42.676;23.320;2023-04-29T07:27:02;94775.81;;;10.78;100.00
38400;BME280;24180;42.676;23.320;2023-04-29T07:29:27;94795.34;;;11.17;100.00
38400;BME280;24180;42.676;23.320;2023-04-29T07:31:52;94753.81;;;11.09;99.93
38400;BME280;24180;42.676;23.320;2023-04-29T07:34:18;94783.69;;;11.49;99.61
38400;BME280;24180;42.676;23.320;2023-04-29T07:36:43;94779.25;;;11.59;97.06
38400;BME280;24180;42.676;23.320;2023-04-29T07:39:08;94784.13;;;11.80;95.84
38400;BME280;24180;42.676;23.320;2023-04-29T07:41:36;94802.66;;;12.02;94.20
38400;BME280;24180;42.676;23.320;2023-04-29T07:44:01;94764.22;;;12.06;92.27
38400;BME280;24180;42.676;23.320;2023-04-29T07:46:27;94769.94;;;12.35;86.66
38400;BME280;24180;42.676;23.320;2023-04-29T07:48:52;94774.69;;;12.48;83.76
38400;BME280;24180;42.676;23.320;2023-04-29T07:51:18;94776.69;;;12.96;82.25
38400;BME280;24180;42.676;23.320;2023-04-29T07:53:43;94783.03;;;13.43;79.46
38400;BME280;24180;42.676;23.320;2023-04-29T07:56:09;94776.38;;;13.65;77.24
38400;BME280;24180;42.676;23.320;2023-04-29T07:58:34;94779.00;;;14.14;73.85
38400;BME280;24180;42.676;23.320;2023-04-29T08:01:07;94772.09;;;14.61;70.48
38400;BME280;24180;42.676;23.320;2023-04-29T08:03:33;94741.84;;;14.52;66.54
38400;BME280;24180;42.676;23.320;2023-04-29T08:06:04;94751.25;;;14.53;65.02
38400;BME280;24180;42.676;23.320;2023-04-29T08:08:30;94769.47;;;14.69;63.84
38400;BME280;24180;42.676;23.320;2023-04-29T08:10:56;94752.28;;;14.44;65.23
38400;BME280;24180;42.676;23.320;2023-04-29T08:13:21;94773.28;;;14.89;64.97
38400;BME280;24180;42.676;23.320;2023-04-29T08:15:47;94737.91;;;15.26;62.35
38400;BME280;24180;42.676;23.320;2023-04-29T08:18:12;94770.09;;;15.72;58.69
38400;BME280;24180;42.676;23.320;2023-04-29T08:20:38;94759.72;;;15.33;59.10
38400;BME280;24180;42.676;23.320;2023-04-29T08:23:03;94764.69;;;15.20;59.10
38400;BME280;24180;42.676;23.320;2023-04-29T08:25:28;94732.41;;;15.52;58.07
38400;BME280;24180;42.676;23.320;2023-04-29T08:27:54;94739.88;;;15.55;56.10
38400;BME280;24180;42.676;23.320;2023-04-29T08:30:20;94745.00;;;15.40;55.98
38400;BME280;24180;42.676;23.320;2023-04-29T08:32:46;94753.59;;;15.49;56.31
38400;BME280;24180;42.676;23.320;2023-04-29T08:35:11;94752.88;;;15.32;55.37
38400;BME280;24180;42.676;23.320;2023-04-29T08:37:37;94728.72;;;15.07;54.38
38400;BME280;24180;42.676;23.320;2023-04-29T08:40:03;94751.22;;;15.39;55.57
38400;BME280;24180;42.676;23.320;2023-04-29T08:42:34;94752.94;;;15.55;53.61
38400;BME280;24180;42.676;23.320;2023-04-29T08:45:01;94727.34;;;15.50;53.39
38400;BME280;24180;42.676;23.320;2023-04-29T08:47:31;94720.66;;;15.70;52.67
38400;BME280;24180;42.676;23.320;2023-04-29T08:50:02;94739.47;;;15.88;52.66
38400;BME280;24180;42.676;23.320;2023-04-29T08:52:31;94727.41;;;16.02;53.92
38400;BME280;24180;42.676;23.320;2023-04-29T08:55:00;94722.13;;;16.25;52.95
38400;BME280;24180;42.676;23.320;2023-04-29T08:57:27;94727.19;;;16.12;52.51
38400;BME280;24180;42.676;23.320;2023-04-29T08:59:54;94736.44;;;16.14;53.51
38400;BME280;24180;42.676;23.320;2023-04-29T09:02:19;94716.88;;;16.10;53.10
38400;BME280;24180;42.676;23.320;2023-04-29T09:05:04;94702.59;;;16.50;52.99
38400;BME280;24180;42.676;23.320;2023-04-29T09:07:34;94719.13;;;17.16;50.08
38400;BME280;24180;42.676;23.320;2023-04-29T09:10:01;94693.41;;;16.83;50.15
38400;BME280;24180;42.676;23.320;2023-04-29T09:12:28;94711.63;;;17.27;48.89
38400;BME280;24180;42.676;23.320;2023-04-29T09:14:55;94719.78;;;17.39;49.12
38400;BME280;24180;42.676;23.320;2023-04-29T09:17:40;94715.09;;;17.35;49.21
38400;BME280;24180;42.676;23.320;2023-04-29T09:23:02;94713.88;;;17.52;47.23
38400;BME280;24180;42.676;23.320;2023-04-29T09:25:28;94701.81;;;17.93;46.69
38400;BME280;24180;42.676;23.320;2023-04-29T09:27:55;94711.69;;;17.98;44.76
38400;BME280;24180;42.676;23.320;2023-04-29T09:30:21;94699.38;;;17.92;43.56
38400;BME280;24180;42.676;23.320;2023-04-29T09:33:06;94708.75;;;18.07;44.13
38400;BME280;24180;42.676;23.320;2023-04-29T09:35:32;94693.81;;;18.29;43.50
38400;BME280;24180;42.676;23.320;2023-04-29T09:40:36;94677.03;;;18.30;43.60
38400;BME280;24180;42.676;23.320;2023-04-29T09:43:02;94695.94;;;18.88;43.02
38400;BME280;24180;42.676;23.320;2023-04-29T09:45:37;94691.78;;;19.06;41.56
38400;BME280;24180;42.676;23.320;2023-04-29T09:48:04;94663.50;;;19.02;41.19
38400;BME280;24180;42.676;23.320;2023-04-29T09:50:34;94672.22;;;19.15;40.20
38400;BME280;24180;42.676;23.320;2023-04-29T09:53:03;94673.78;;;19.84;40.19
38400;BME280;24180;42.676;23.320;2023-04-29T09:55:30;94681.66;;;19.90;39.43
38400;BME280;24180;42.676;23.320;2023-04-29T09:57:56;94603.94;;;19.02;39.05
38400;BME280;24180;42.676;23.320;2023-04-29T10:00:23;94644.38;;;19.34;39.20
38400;BME280;24180;42.676;23.320;2023-04-29T10:02:50;94663.66;;;19.48;39.24
38400;BME280;24180;42.676;23.320;2023-04-29T10:05:18;94658.59;;;19.66;39.24
38400;BME280;24180;42.676;23.320;2023-04-29T10:07:45;94656.78;;;20.06;39.09
38400;BME280;24180;42.676;23.320;2023-04-29T10:10:11;94651.59;;;20.77;37.71
38400;BME280;24180;42.676;23.320;2023-04-29T10:12:39;94652.16;;;21.36;37.41
38400;BME280;24180;42.676;23.320;2023-04-29T10:17:54;94635.84;;;21.77;34.74
38400;BME280;24180;42.676;23.320;2023-04-29T10:20:24;94644.31;;;22.11;32.63
38400;BME280;24180;42.676;23.320;2023-04-29T10:22:54;94620.78;;;21.28;33.05
38400;BME280;24180;42.676;23.320;2023-04-29T10:25:23;94644.53;;;20.71;33.49
38400;BME280;24180;42.676;23.320;2023-04-29T10:27:49;94627.88;;;19.86;34.54
38400;BME280;24180;42.676;23.320;2023-04-29T10:30:18;94646.41;;;20.50;35.07
38400;BME280;24180;42.676;23.320;2023-04-29T10:32:45;94626.47;;;20.03;35.11
38400;BME280;24180;42.676;23.320;2023-04-29T10:35:13;94634.16;;;19.85;35.42
38400;BME280;24180;42.676;23.320;2023-04-29T10:37:48;94642.38;;;19.36;36.17
38400;BME280;24180;42.676;23.320;2023-04-29T10:40:17;94640.69;;;18.96;37.39
38400;BME280;24180;42.676;23.320;2023-04-29T10:42:51;94634.38;;;18.43;37.88
38400;BME280;24180;42.676;23.320;2023-04-29T10:53:04;94639.84;;;18.89;38.13
38400;BME280;24180;42.676;23.320;2023-04-29T10:55:30;94621.31;;;19.10;36.91
38400;BME280;24180;42.676;23.320;2023-04-29T10:57:56;94603.53;;;18.99;37.95
38400;BME280;24180;42.676;23.320;2023-04-29T11:00:25;94633.16;;;19.67;37.51
38400;BME280;24180;42.676;23.320;2023-04-29T11:02:59;94637.59;;;19.86;38.67
38400;BME280;24180;42.676;23.320;2023-04-29T11:05:32;94563.31;;;18.79;37.90
38400;BME280;24180;42.676;23.320;2023-04-29T11:08:14;94621.53;;;19.08;37.62
38400;BME280;24180;42.676;23.320;2023-04-29T11:10:51;94626.44;;;18.70;36.89
38400;BME280;24180;42.676;23.320;2023-04-29T11:13:39;94627.50;;;18.42;37.48
38400;BME280;24180;42.676;23.320;2023-04-29T11:16:10;94604.38;;;18.17;39.04
38400;BME280;24180;42.676;23.320;2023-04-29T11:21:29;94602.56;;;18.11;36.19
38400;BME280;24180;42.676;23.320;2023-04-29T11:23:56;94597.13;;;18.13;35.75
38400;BME280;24180;42.676;23.320;2023-04-29T11:26:23;94605.47;;;17.95;35.90
38400;BME280;24180;42.676;23.320;2023-04-29T11:28:50;94621.59;;;17.92;35.00
38400;BME280;24180;42.676;23.320;2023-04-29T11:31:16;94616.13;;;17.94;35.85
38400;BME280;24180;42.676;23.320;2023-04-29T11:33:41;94627.50;;;17.73;34.03
38400;BME280;24180;42.676;23.320;2023-04-29T11:36:08;94622.81;;;17.47;34.35
38400;BME280;24180;42.676;23.320;2023-04-29T11:38:38;94590.97;;;17.44;34.58
38400;BME280;24180;42.676;23.320;2023-04-29T11:41:04;94586.66;;;17.57;34.22
38400;BME280;24180;42.676;23.320;2023-04-29T11:43:29;94606.47;;;17.66;36.01
38400;BME280;24180;42.676;23.320;2023-04-29T11:45:55;94590.09;;;17.58;36.51
38400;BME280;24180;42.676;23.320;2023-04-29T11:48:21;94605.00;;;17.57;37.00
38400;BME280;24180;42.676;23.320;2023-04-29T11:50:50;94613.47;;;17.59;36.25
38400;BME280;24180;42.676;23.320;2023-04-29T11:53:19;94613.31;;;17.61;35.99
38400;BME280;24180;42.676;23.320;2023-04-29T11:55:45;94614.34;;;17.45;36.31
38400;BME280;24180;42.676;23.320;2023-04-29T11:58:10;94586.63;;;17.08;37.49
38400;BME280;24180;42.676;23.320;2023-04-29T12:00:36;94613.66;;;17.15;37.91
38400;BME280;24180;42.676;23.320;2023-04-29T12:03:18;94591.84;;;16.87;36.73
38400;BME280;24180;42.676;23.320;2023-04-29T12:05:49;94585.94;;;16.78;37.46
38400;BME280;24180;42.676;23.320;2023-04-29T12:08:21;94607.47;;;17.02;38.79
38400;BME280;24180;42.676;23.320;2023-04-29T12:10:48;94598.69;;;17.09;38.93
38400;BME280;24180;42.676;23.320;2023-04-29T12:13:15;94580.34;;;17.03;39.83
38400;BME280;24180;42.676;23.320;2023-04-29T12:15:40;94598.78;;;16.95;40.38
38400;BME280;24180;42.676;23.320;2023-04-29T12:18:07;94605.84;;;16.79;39.60
38400;BME280;24180;42.676;23.320;2023-04-29T12:20:32;94580.25;;;16.75;41.14
38400;BME280;24180;42.676;23.320;2023-04-29T12:23:11;94553.06;;;16.91;41.02
38400;BME280;24180;42.676;23.320;2023-04-29T12:25:37;94596.38;;;17.42;41.12
38400;BME280;24180;42.676;23.320;2023-04-29T12:28:03;94576.34;;;17.28;40.94
38400;BME280;24180;42.676;23.320;2023-04-29T12:30:28;94573.47;;;17.23;40.68
38400;BME280;24180;42.676;23.320;2023-04-29T12:32:54;94570.59;;;17.18;41.46
38400;BME280;24180;42.676;23.320;2023-04-29T12:35:19;94561.63;;;17.06;41.84
38400;BME280;24180;42.676;23.320;2023-04-29T12:37:49;94561.03;;;17.04;42.28
38400;BME280;24180;42.676;23.320;2023-04-29T12:40:15;94581.31;;;17.44;42.44
38400;BME280;24180;42.676;23.320;2023-04-29T12:42:41;94584.81;;;17.79;43.01
38400;BME280;24180;42.676;23.320;2023-04-29T12:45:28;94580.44;;;17.58;43.27
38400;BME280;24180;42.676;23.320;2023-04-29T12:47:55;94552.00;;;17.55;42.85
38400;BME280;24180;42.676;23.320;2023-04-29T12:50:28;94573.22;;;17.60;43.20
38400;BME280;24180;42.676;23.320;2023-04-29T12:52:54;94585.72;;;17.93;43.05
38400;BME280;24180;42.676;23.320;2023-04-29T12:55:20;94550.19;;;17.84;42.21
38400;BME280;24180;42.676;23.320;2023-04-29T12:57:45;94565.38;;;17.95;41.75
38400;BME280;24180;42.676;23.320;2023-04-29T13:00:11;94551.72;;;18.06;41.92
38400;BME280;24180;42.676;23.320;2023-04-29T13:02:37;94570.63;;;18.42;41.57
38400;BME280;24180;42.676;23.320;2023-04-29T13:05:02;94543.81;;;18.40;40.81
38400;BME280;24180;42.676;23.320;2023-04-29T13:07:28;94544.88;;;18.05;41.69
38400;BME280;24180;42.676;23.320;2023-04-29T13:09:54;94546.66;;;17.70;42.88
38400;BME280;24180;42.676;23.320;2023-04-29T13:12:19;94539.44;;;18.06;42.03
38400;BME280;24180;42.676;23.320;2023-04-29T13:14:44;94563.41;;;18.44;43.23
38400;BME280;24180;42.676;23.320;2023-04-29T13:17:10;94578.72;;;18.47;43.54
38400;BME280;24180;42.676;23.320;2023-04-29T13:19:35;94556.09;;;18.33;42.75
38400;BME280;24180;42.676;23.320;2023-04-29T13:22:01;94537.41;;;18.49;43.91